Time;durP1;ratioP1;P1;durP2;ratioP2;P2;SDS_P1;SDS_P2;PMS_P1;PMS_P2;Temp;Humidity;BMP_temperature;BMP_pressure;BME280_temperature;BME280_humidity;BME280_pressure;Samples;Min_cycle;Max_cycle;Signal;HPM_P1;HPM_P2
2023/01/12 04:44:19;;;;;;;;;;;5.00;99.90;;;;;;5250499;23;20033;-81
2023/01/12 04:46:49;;;;;;;;;;;5.00;99.90;;;;;;4939847;29;19974;-80
2023/01/12 04:49:17;;;;;;;;;;;5.00;99.90;;;;;;4939730;29;19989;-80
2023/01/12 04:54:47;;;;;;;;;;;5.00;99.90;;;;;;4938552;29;19983;-81
2023/01/12 05:53:35;;;;;;;;;;;4.80;99.90;;;;;;5623962;23;19933;-81
2023/01/12 05:59:03;;;;;;;;;;;4.80;99.90;;;;;;5573593;23;19925;-82
2023/01/12 06:01:33;;;;;;;;;;;4.80;99.90;;;;;;5425605;23;19945;-79
2023/01/12 06:09:36;;;;;;;;;;;4.80;99.90;;;;;;5689528;23;19927;-80
2023/01/12 14:37:01;;;;;;;;;;;6.40;99.90;;;;;;5879277;23;19927;-79
2023/01/12 15:26:19;;;;;;;;;;;6.60;99.90;;;;;;5467236;23;19951;-81
2023/01/12 15:37:36;;;;;;;;;;;6.70;99.90;;;;;;5780140;23;19950;-81
2023/01/12 15:40:15;;;;;;;;;;;6.70;99.90;;;;;;4982861;28;20101;-81
2023/01/12 15:42:54;;;;;;;;;;;6.70;99.90;;;;;;4976153;28;19930;-79
2023/01/12 15:45:33;;;;;;;;;;;6.70;99.90;;;;;;4964743;28;19930;-81
2023/01/12 15:48:06;;;;;;;;;;;6.70;99.90;;;;;;4938449;29;19934;-81
2023/01/12 15:50:42;;;;;;;;;;;6.70;99.90;;;;;;4937024;29;19933;-81
2023/01/12 15:53:14;;;;;;;;;;;6.70;99.90;;;;;;4939443;29;20085;-81
2023/01/12 15:55:43;;;;;;;;;;;6.70;99.90;;;;;;4933477;29;19926;-81
2023/01/12 15:58:18;;;;;;;;;;;6.70;99.90;;;;;;4942765;29;19910;-82
2023/01/12 16:00:46;;;;;;;;;;;6.70;99.90;;;;;;4958686;28;19961;-81
2023/01/12 16:03:14;;;;;;;;;;;6.70;99.90;;;;;;4950557;29;19957;-81
2023/01/12 16:08:23;;;;;;;;;;;6.70;99.90;;;;;;4956732;23;19938;-81
2023/01/12 16:11:12;;;;;;;;;;;6.80;99.90;;;;;;4950014;28;19931;-80
2023/01/12 16:13:48;;;;;;;;;;;6.70;99.90;;;;;;4972775;28;19926;-81
2023/01/12 16:16:19;;;;;;;;;;;6.80;99.90;;;;;;4961891;28;19934;-81
2023/01/12 16:18:58;;;;;;;;;;;6.80;99.90;;;;;;4952882;28;20009;-81
2023/01/12 16:21:26;;;;;;;;;;;6.80;99.90;;;;;;4960838;28;19937;-81
2023/01/12 16:23:57;;;;;;;;;;;6.80;99.90;;;;;;4970081;28;19957;-81
2023/01/12 16:26:25;;;;;;;;;;;6.80;99.90;;;;;;4949077;28;20476;-81
2023/01/12 16:29:07;;;;;;;;;;;6.70;99.90;;;;;;4956746;28;19967;-81
2023/01/12 16:31:35;;;;;;;;;;;6.80;99.90;;;;;;4968606;28;19942;-81
2023/01/12 16:34:04;;;;;;;;;;;6.80;99.90;;;;;;4934606;28;19972;-81
2023/01/12 16:36:39;;;;;;;;;;;6.80;99.90;;;;;;4957630;28;19938;-81
2023/01/12 16:39:08;;;;;;;;;;;6.80;99.90;;;;;;4966958;28;19965;-81
2023/01/12 16:41:36;;;;;;;;;;;6.80;99.90;;;;;;4962298;28;19926;-81
2023/01/12 16:44:06;;;;;;;;;;;6.80;99.90;;;;;;4960200;28;19930;-81
2023/01/12 16:46:34;;;;;;;;;;;6.80;99.90;;;;;;4955872;28;21015;-81
2023/01/12 16:49:06;;;;;;;;;;;6.80;99.90;;;;;;4960465;28;19927;-80
2023/01/12 16:51:33;;;;;;;;;;;6.80;99.90;;;;;;4953161;28;19916;-81
2023/01/12 16:54:03;;;;;;;;;;;6.80;99.90;;;;;;4957648;28;20004;-81
2023/01/12 16:56:35;;;;;;;;;;;6.80;99.90;;;;;;4953999;28;19930;-81
2023/01/12 16:59:03;;;;;;;;;;;6.80;99.90;;;;;;4947863;28;20449;-81
2023/01/12 17:01:32;;;;;;;;;;;6.80;99.90;;;;;;4947046;28;20025;-81
2023/01/12 17:04:08;;;;;;;;;;;6.80;99.90;;;;;;4945139;28;19930;-81
2023/01/12 17:06:37;;;;;;;;;;;6.80;99.90;;;;;;4948199;28;19926;-80
2023/01/12 17:09:08;;;;;;;;;;;6.80;99.90;;;;;;4934834;28;19933;-81
2023/01/12 17:11:37;;;;;;;;;;;6.80;99.90;;;;;;4941912;28;19927;-82
2023/01/12 17:14:21;;;;;;;;;;;6.80;99.90;;;;;;4954133;28;19953;-80
2023/01/12 17:16:56;;;;;;;;;;;6.80;99.90;;;;;;4959343;28;19957;-81
2023/01/12 17:19:27;;;;;;;;;;;6.80;99.90;;;;;;4936879;28;19938;-76
2023/01/12 17:21:55;;;;;;;;;;;6.80;99.90;;;;;;4942084;28;19938;-78
2023/01/12 17:24:22;;;;;;;;;;;6.80;99.90;;;;;;4954738;28;19942;-80
2023/01/12 17:26:53;;;;;;;;;;;6.80;99.90;;;;;;4963462;28;19916;-80
2023/01/12 17:29:31;;;;;;;;;;;6.80;99.90;;;;;;4964417;28;19935;-80
2023/01/12 17:32:03;;;;;;;;;;;6.80;99.90;;;;;;4966498;28;20078;-81
2023/01/12 17:34:32;;;;;;;;;;;6.80;99.90;;;;;;4960455;28;19910;-80
2023/01/12 17:39:29;;;;;;;;;;;6.70;99.90;;;;;;4998148;23;19933;-82
2023/01/12 17:44:53;;;;;;;;;;;6.70;99.90;;;;;;4968445;28;19922;-79
2023/01/12 17:47:24;;;;;;;;;;;6.70;99.90;;;;;;5099219;23;19926;-80
2023/01/12 17:49:54;;;;;;;;;;;6.70;99.90;;;;;;5006778;23;19946;-82
2023/01/12 17:52:32;;;;;;;;;;;6.70;99.90;;;;;;4950549;29;19978;-82
2023/01/12 18:54:27;;;;;;;;;;;6.70;99.90;;;;;;4703869;26;19934;-81
2023/01/12 18:56:59;;;;;;;;;;;6.70;99.90;;;;;;4974911;28;19922;-81
2023/01/12 18:59:34;;;;;;;;;;;6.70;99.90;;;;;;4963846;29;19918;-81
2023/01/12 19:02:03;;;;;;;;;;;6.70;99.90;;;;;;4968125;29;19935;-81
2023/01/12 19:05:06;;;;;;;;;;;6.70;99.90;;;;;;4947486;29;19926;-81
2023/01/12 19:07:50;;;;;;;;;;;6.70;99.90;;;;;;4963695;29;19911;-81
2023/01/12 19:10:36;;;;;;;;;;;6.70;99.90;;;;;;4967764;29;19941;-81
2023/01/12 19:29:13;;;;;;;;;;;6.70;99.90;;;;;;4360347;23;19922;-80
2023/01/12 19:31:53;;;;;;;;;;;6.70;99.90;;;;;;5253089;23;20842;-81
2023/01/12 19:34:23;;;;;;;;;;;6.70;99.90;;;;;;4979299;28;19921;-82
2023/01/12 19:37:00;;;;;;;;;;;6.60;99.90;;;;;;4988803;28;19910;-81
2023/01/12 19:39:47;;;;;;;;;;;6.60;99.90;;;;;;5445165;23;19933;-82
2023/01/12 19:47:52;;;;;;;;;;;6.60;99.90;;;;;;1387376;26;19985;-82
2023/01/12 19:50:23;;;;;;;;;;;6.60;99.90;;;;;;4983150;28;20121;-81
2023/01/12 19:52:53;;;;;;;;;;;6.70;99.90;;;;;;4978739;28;19917;-82
2023/01/12 20:00:48;;;;;;;;;;;6.70;99.90;;;;;;5428095;23;19917;-82
2023/01/12 20:05:58;;;;;;;;;;;6.60;99.90;;;;;;4634186;26;20083;-82
2023/01/12 20:16:48;;;;;;;;;;;6.60;99.90;;;;;;5042133;23;19938;-80
2023/01/12 20:19:17;;;;;;;;;;;6.60;99.90;;;;;;4967117;28;20472;-80
2023/01/12 20:21:49;;;;;;;;;;;6.70;99.90;;;;;;4961314;28;19934;-79
2023/01/12 20:24:20;;;;;;;;;;;6.70;99.90;;;;;;4952590;28;19931;-80
2023/01/12 20:27:00;;;;;;;;;;;6.60;99.90;;;;;;4942523;28;19910;-80
2023/01/12 20:29:35;;;;;;;;;;;6.60;99.90;;;;;;4957280;28;19961;-81
2023/01/12 20:32:07;;;;;;;;;;;6.60;99.90;;;;;;4960140;28;19926;-82
2023/01/12 20:34:47;;;;;;;;;;;6.60;99.90;;;;;;4956503;28;19927;-82
2023/01/12 20:37:23;;;;;;;;;;;6.70;99.90;;;;;;4955233;28;20002;-82
2023/01/12 20:39:59;;;;;;;;;;;6.70;99.90;;;;;;4960276;28;19989;-82
2023/01/12 20:42:33;;;;;;;;;;;6.60;99.90;;;;;;4958388;28;19969;-82
2023/01/12 20:45:09;;;;;;;;;;;6.60;99.90;;;;;;4961751;28;19965;-82
2023/01/12 20:47:41;;;;;;;;;;;6.60;99.90;;;;;;4957146;28;19942;-83
2023/01/12 20:50:17;;;;;;;;;;;6.60;99.90;;;;;;4956293;28;20336;-82
2023/01/12 20:52:49;;;;;;;;;;;6.60;99.90;;;;;;4963997;28;19941;-80
2023/01/12 20:55:41;;;;;;;;;;;6.60;99.90;;;;;;4957552;28;19943;-82
2023/01/12 20:58:15;;;;;;;;;;;6.60;99.90;;;;;;4955120;28;19934;-82
2023/01/12 21:00:49;;;;;;;;;;;6.60;99.90;;;;;;4954082;28;20041;-82
2023/01/12 21:03:23;;;;;;;;;;;6.60;99.90;;;;;;4960595;28;19954;-82
2023/01/12 21:06:15;;;;;;;;;;;6.60;99.90;;;;;;4961668;28;20040;-82
2023/01/12 21:08:48;;;;;;;;;;;6.60;99.90;;;;;;4945499;28;19926;-82
2023/01/12 21:11:21;;;;;;;;;;;6.60;99.90;;;;;;4959642;28;20388;-82
2023/01/12 21:13:51;;;;;;;;;;;6.60;99.90;;;;;;4960413;28;20017;-82
2023/01/12 21:16:22;;;;;;;;;;;6.50;99.90;;;;;;4940940;28;20033;-83
2023/01/12 21:18:59;;;;;;;;;;;6.60;99.90;;;;;;4963030;28;19954;-82
2023/01/12 21:21:30;;;;;;;;;;;6.50;99.90;;;;;;4962646;28;19941;-82
2023/01/12 21:24:06;;;;;;;;;;;6.50;99.90;;;;;;4961743;28;19934;-82
2023/01/12 21:26:48;;;;;;;;;;;6.50;99.90;;;;;;4959888;28;19986;-82
2023/01/12 21:29:19;;;;;;;;;;;6.50;99.90;;;;;;4961000;28;19970;-82
2023/01/12 21:31:55;;;;;;;;;;;6.50;99.90;;;;;;4937629;28;19927;-82
2023/01/12 21:37:15;;;;;;;;;;;6.50;99.90;;;;;;4960116;28;19934;-82
2023/01/12 21:39:47;;;;;;;;;;;6.50;99.90;;;;;;4941651;28;19935;-82
2023/01/12 21:44:59;;;;;;;;;;;6.50;99.90;;;;;;4956991;28;19977;-80
2023/01/12 21:47:29;;;;;;;;;;;6.50;99.90;;;;;;4960044;28;19935;-80
2023/01/12 21:50:00;;;;;;;;;;;6.50;99.90;;;;;;4957604;28;20413;-81
2023/01/12 21:52:41;;;;;;;;;;;6.50;99.90;;;;;;4959995;28;20393;-80
2023/01/12 21:55:14;;;;;;;;;;;6.50;99.90;;;;;;4960634;28;19935;-82
2023/01/12 21:57:43;;;;;;;;;;;6.50;99.90;;;;;;4947699;28;19930;-82
2023/01/12 22:00:14;;;;;;;;;;;6.40;99.90;;;;;;4946816;28;20460;-82
2023/01/12 22:02:50;;;;;;;;;;;6.40;99.90;;;;;;4948698;28;19998;-82
2023/01/12 22:05:20;;;;;;;;;;;6.50;99.90;;;;;;4962691;28;19949;-82
2023/01/12 22:07:48;;;;;;;;;;;6.50;99.90;;;;;;4957474;28;20006;-82
2023/01/12 22:10:28;;;;;;;;;;;6.50;99.90;;;;;;4962828;28;19982;-82
2023/01/12 22:13:08;;;;;;;;;;;6.50;99.90;;;;;;4961306;28;19933;-82
2023/01/12 22:15:41;;;;;;;;;;;6.40;99.90;;;;;;4958812;28;19927;-82
2023/01/12 22:18:11;;;;;;;;;;;6.40;99.90;;;;;;4944896;28;20546;-82
2023/01/12 22:20:41;;;;;;;;;;;6.40;99.90;;;;;;4958938;28;19930;-82
2023/01/12 22:23:15;;;;;;;;;;;6.40;99.90;;;;;;4950707;28;19935;-82
2023/01/12 22:25:49;;;;;;;;;;;6.40;99.90;;;;;;4961663;28;19933;-82
2023/01/12 22:28:16;;;;;;;;;;;6.40;99.90;;;;;;4948096;28;20380;-82
2023/01/12 22:30:48;;;;;;;;;;;6.40;99.90;;;;;;4946422;28;19926;-82
2023/01/12 22:33:17;;;;;;;;;;;6.40;99.90;;;;;;4962468;28;19927;-80
2023/01/12 22:35:48;;;;;;;;;;;6.40;99.90;;;;;;4949441;28;19926;-80
2023/01/12 22:38:18;;;;;;;;;;;6.40;99.90;;;;;;4960225;28;19926;-80
2023/01/12 22:40:45;;;;;;;;;;;6.40;99.90;;;;;;4959736;28;19926;-80
2023/01/12 22:43:29;;;;;;;;;;;6.40;99.90;;;;;;4947186;28;19949;-80
2023/01/12 22:45:57;;;;;;;;;;;6.40;99.90;;;;;;4956855;28;19935;-80
2023/01/12 22:48:32;;;;;;;;;;;6.40;99.90;;;;;;4960987;28;19926;-80
2023/01/12 22:51:00;;;;;;;;;;;6.40;99.90;;;;;;4955400;28;20413;-80
2023/01/12 22:53:35;;;;;;;;;;;6.40;99.90;;;;;;4962607;28;20360;-80
2023/01/12 22:56:03;;;;;;;;;;;6.40;99.90;;;;;;4961810;28;19934;-80
2023/01/12 22:58:40;;;;;;;;;;;6.30;99.90;;;;;;4958305;28;19990;-80
2023/01/12 23:01:08;;;;;;;;;;;6.40;99.90;;;;;;4961192;28;19953;-80
2023/01/12 23:03:35;;;;;;;;;;;6.30;99.90;;;;;;4944543;28;19926;-80
2023/01/12 23:06:06;;;;;;;;;;;6.30;99.90;;;;;;4956187;28;19934;-79
2023/01/12 23:08:36;;;;;;;;;;;6.30;99.90;;;;;;4957740;28;19969;-80
2023/01/12 23:11:08;;;;;;;;;;;6.30;99.90;;;;;;4961435;28;19934;-80
2023/01/12 23:13:37;;;;;;;;;;;6.30;99.90;;;;;;4962200;28;19930;-80
2023/01/12 23:16:07;;;;;;;;;;;6.30;99.90;;;;;;4964802;28;19934;-80
2023/01/12 23:18:42;;;;;;;;;;;6.30;99.90;;;;;;4965828;28;20455;-80
2023/01/12 23:21:12;;;;;;;;;;;6.30;99.90;;;;;;4968230;28;19926;-80
2023/01/12 23:23:42;;;;;;;;;;;6.30;99.90;;;;;;4959306;28;19978;-80
2023/01/12 23:26:13;;;;;;;;;;;6.30;99.90;;;;;;4940184;28;19927;-80
2023/01/12 23:28:46;;;;;;;;;;;6.30;99.90;;;;;;4956370;28;19930;-80
2023/01/12 23:31:20;;;;;;;;;;;6.30;99.90;;;;;;4955859;28;19934;-80
2023/01/12 23:34:02;;;;;;;;;;;6.30;99.90;;;;;;4955874;28;19926;-80
2023/01/12 23:36:30;;;;;;;;;;;6.30;99.90;;;;;;4959663;28;19926;-82
2023/01/12 23:38:58;;;;;;;;;;;6.30;99.90;;;;;;4960273;28;19970;-82
2023/01/12 23:41:28;;;;;;;;;;;6.30;99.90;;;;;;4956725;28;19937;-82
2023/01/12 23:44:01;;;;;;;;;;;6.30;99.90;;;;;;4955498;28;19934;-82
2023/01/12 23:46:36;;;;;;;;;;;6.20;99.90;;;;;;4942463;28;20288;-82
2023/01/12 23:49:04;;;;;;;;;;;6.20;99.90;;;;;;4940998;28;19934;-82
2023/01/12 23:51:35;;;;;;;;;;;6.30;99.90;;;;;;4954051;28;20013;-82
2023/01/12 23:54:06;;;;;;;;;;;6.30;99.90;;;;;;4952324;28;19959;-82
2023/01/12 23:56:38;;;;;;;;;;;6.20;99.90;;;;;;4953650;28;20413;-82
2023/01/12 23:59:12;;;;;;;;;;;6.20;99.90;;;;;;4953156;28;19931;-82
